Royal Melbourne — WDC2865 — position and weather

sailwx.info

Track history (hours):
 
Tides and Currents Weather Stations Pressure Air Temp Water Temp Dewpoint Dewpoint Depression Visibility Wind Speed Wind Dir Waves Ship Positions

Royal Melbourne

Owner: Harley Marine Services, Inc, Seattle, WA. More information available from US FCC via Universal Licensing System and Coast Guard Vessel Documentation Center.

Last reported at 2016-May-28 15:32 UTC. Time now 2016-May-28 19:44 UTC.
Position N 37°48' W 122°20'.

Length 30 m; draft 2 m.

Type: Tug. MMSI: 366998830.

Date/timePositionNaut miles runAvg speedWind from/ knotsBaromVisibWave heightAir tempDewpointWater temp
2016-May-28 15:32N 37°48' W 122°20'3 0.2
2016-May-27 23:25N 37°48' W 122°17'7 6.7
2016-May-27 22:27N 37°52' W 122°24'10 0.7
2016-May-27 08:14N 38°02' W 122°22'6 6.8
2016-May-27 07:25N 38°03' W 122°16'0 0.1
2016-May-27 06:13N 38°03' W 122°16'0 0.0
2016-May-27 04:31N 38°03' W 122°16'0 0.0
2016-May-26 22:33N 38°03' W 122°16'5 4.7
2016-May-26 21:30N 38°02' W 122°22'9 8.5
2016-May-26 20:29N 37°54' W 122°25'7 7.2
2016-May-26 19:34N 37°48' W 122°20'3 2.7
2016-May-26 18:33N 37°48' W 122°17'0 0.0
2016-May-26 16:33N 37°48' W 122°17'0 0.0
2016-May-26 15:33N 37°48' W 122°17'0 0.0
2016-May-26 14:33N 37°48' W 122°17'0 0.0
2016-May-26 13:33N 37°48' W 122°17'0 0.0
2016-May-26 12:33N 37°48' W 122°17'0 0.0
2016-May-26 11:33N 37°48' W 122°17'4 3.6
2016-May-26 10:34N 37°46' W 122°21'3 2.8
2016-May-26 09:23N 37°42' W 122°20'0 0.0
2016-May-26 03:33N 37°43' W 122°20'1 1.3
2016-May-26 02:33N 37°44' W 122°19'0 0.0
2016-May-26 01:32N 37°44' W 122°19'0 0.0
2016-May-25 21:30N 37°44' W 122°19'0 0.0
2016-May-25 20:31N 37°44' W 122°19'0 0.0
2016-May-25 19:33N 37°44' W 122°19'0 0.0
2016-May-25 18:33N 37°44' W 122°19'8 7.8
2016-May-25 17:33N 37°51' W 122°24'4 4.4
2016-May-25 16:33N 37°55' W 122°22'0 0.0
2016-May-25 15:33N 37°55' W 122°22'0 0.0
2016-May-25 14:33N 37°55' W 122°22'0 0.0
2016-May-25 13:33N 37°55' W 122°22'0 0.0
2016-May-25 12:33N 37°55' W 122°22'0 0.0
2016-May-25 11:33N 37°55' W 122°22'0 0.0
2016-May-25 10:33N 37°55' W 122°22'0 0.0
2016-May-25 09:33N 37°55' W 122°22'0 0.0
2016-May-25 08:33N 37°55' W 122°22'0 0.0
2016-May-25 07:33N 37°55' W 122°22'0 0.0
2016-May-25 06:33N 37°55' W 122°22'0 0.0
2016-May-25 05:33N 37°55' W 122°22'0 0.0
2016-May-25 04:33N 37°55' W 122°22'0 0.0
2016-May-25 03:33N 37°55' W 122°22'0 0.0
2016-May-25 02:30N 37°55' W 122°22'3 3.7
2016-May-25 01:33N 37°52' W 122°24'8 7.9
2016-May-25 00:32N 37°44' W 122°20'0 0.1
2016-May-24 23:29N 37°44' W 122°20'0 0.1
2016-May-24 22:29N 37°44' W 122°20'0 0.0
2016-May-24 21:29N 37°44' W 122°20'0 0.0
2016-May-24 20:29N 37°44' W 122°20'0 0.0
2016-May-24 19:32N 37°44' W 122°20'0 0.0
2016-May-24 18:32N 37°44' W 122°20'0 0.0
2016-May-24 17:32N 37°44' W 122°20'0 0.1
2016-May-24 16:21N 37°44' W 122°20'2 2.4
2016-May-24 15:33N 37°46' W 122°21'3 2.7
2016-May-24 14:33N 37°48' W 122°22'8 8.5
2016-May-24 13:33N 37°56' W 122°26'9 9.3
2016-May-24 12:33N 38°03' W 122°18'8 1.4
2016-May-24 07:11N 38°02' W 122°08'4 6.2
2016-May-24 06:32N 38°04' W 122°13'8 8.2
2016-May-24 05:33N 38°01' W 122°23'7 7.1
2016-May-24 04:33N 37°54' W 122°24'2 1.5
2016-May-24 03:33N 37°55' W 122°22'0 0.0
2016-May-24 02:33N 37°55' W 122°22'0 0.0
2016-May-24 01:33N 37°55' W 122°22'0 0.0
2016-May-24 00:33N 37°55' W 122°22'0 0.0
2016-May-23 23:12N 37°55' W 122°22'0 0.0
2016-May-23 22:33N 37°55' W 122°22'0 0.0
2016-May-23 21:27N 37°55' W 122°22'0 0.0
2016-May-23 20:33N 37°55' W 122°22'0 0.0
2016-May-23 19:12N 37°55' W 122°22'0 0.0
2016-May-23 18:30N 37°55' W 122°22'0 0.0
2016-May-23 17:33N 37°55' W 122°22'0 0.0
2016-May-23 16:33N 37°55' W 122°22'0 0.0
2016-May-23 15:33N 37°55' W 122°22'1 1.1
2016-May-23 14:33N 37°54' W 122°23'8 7.5
2016-May-23 13:32N 38°02' W 122°22'5 1.2
2016-May-23 09:05N 38°03' W 122°16'0 0.0
2016-May-23 07:23N 38°03' W 122°16'0 0.0
2016-May-23 06:11N 38°03' W 122°16'0 0.0
2016-May-22 16:22N 38°03' W 122°16'0 0.0
2016-May-22 13:10N 38°03' W 122°16'3 0.3
2016-May-22 02:23N 38°03' W 122°12'6 7.0
2016-May-22 01:32N 38°03' W 122°19'7 7.5
2016-May-22 00:32N 37°58' W 122°26'8 8.0
2016-May-21 23:33N 37°50' W 122°24'2 1.6
2016-May-21 22:33N 37°48' W 122°24'0 0.0
2016-May-21 21:33N 37°48' W 122°24'0 0.0
2016-May-21 20:33N 37°48' W 122°24'0 0.0
2016-May-21 19:29N 37°48' W 122°24'0 0.1
2016-May-21 18:32N 37°48' W 122°24'0 0.0
2016-May-21 17:32N 37°48' W 122°24'0 0.0
2016-May-21 16:32N 37°48' W 122°24'0 0.0
2016-May-21 15:32N 37°48' W 122°24'0 0.0
2016-May-21 14:32N 37°48' W 122°24'1 0.6
2016-May-21 13:34N 37°49' W 122°24'5 5.2
2016-May-21 12:34N 37°54' W 122°25'3 2.0
2016-May-21 11:17N 37°55' W 122°22'0 0.0
2016-May-21 10:29N 37°55' W 122°22'0 0.0
2016-May-21 09:29N 37°55' W 122°22'0 0.0
2016-May-21 08:23N 37°55' W 122°22'0 0.0
2016-May-21 07:29N 37°55' W 122°22'0 0.0
2016-May-21 06:29N 37°55' W 122°22'0 0.0
2016-May-21 05:26N 37°55' W 122°22'0 0.0
2016-May-21 04:29N 37°55' W 122°22'0 0.0
2016-May-21 03:23N 37°55' W 122°22'0 0.0
2016-May-21 02:29N 37°55' W 122°22'0 0.0
2016-May-21 01:29N 37°55' W 122°22'0 0.0
2016-May-21 00:23N 37°55' W 122°22'0 0.1
2016-May-20 23:26N 37°55' W 122°22'0 0.0
2016-May-20 22:32N 37°55' W 122°22'0 0.0
2016-May-20 21:25N 37°55' W 122°22'0 0.0
2016-May-20 18:16N 37°55' W 122°22'0 0.0
2016-May-20 17:25N 37°55' W 122°22'0 0.0
2016-May-20 16:31N 37°55' W 122°22'0 0.0
2016-May-20 15:31N 37°55' W 122°22'0 0.0
2016-May-20 14:31N 37°55' W 122°22'0 0.0
2016-May-20 13:31N 37°55' W 122°22'0 0.0
2016-May-20 12:31N 37°55' W 122°22'0 0.0
2016-May-20 11:31N 37°55' W 122°22'0 0.0
2016-May-20 10:31N 37°55' W 122°22'0 0.0
2016-May-20 09:28N 37°55' W 122°22'0 0.0
2016-May-20 08:22N 37°55' W 122°22'0 0.0
2016-May-20 07:31N 37°55' W 122°22'0 0.0
2016-May-20 06:31N 37°55' W 122°22'0 0.0
2016-May-20 05:25N 37°55' W 122°22'0 0.0
2016-May-20 04:31N 37°55' W 122°22'0 0.0
2016-May-20 03:28N 37°55' W 122°22'0 0.0
2016-May-20 02:31N 37°55' W 122°22'0 0.0
2016-May-20 01:22N 37°55' W 122°22'1 1.0
2016-May-20 00:33N 37°54' W 122°22'3 3.2
2016-May-19 23:33N 37°51' W 122°23'6 4.4
2016-May-19 22:11N 37°48' W 122°17'0 0.0
2016-May-19 21:32N 37°48' W 122°17'0 0.0
2016-May-19 20:29N 37°48' W 122°17'0 0.0
2016-May-19 19:32N 37°48' W 122°17'0 0.1
2016-May-19 18:33N 37°48' W 122°17'0 0.1
2016-May-19 17:34N 37°48' W 122°17'0 0.0
2016-May-19 16:30N 37°48' W 122°17'0 0.0
2016-May-19 15:24N 37°48' W 122°17'0 0.0
2016-May-19 14:30N 37°48' W 122°17'0 0.0
2016-May-19 13:33N 37°48' W 122°17'0 0.0
2016-May-19 12:33N 37°48' W 122°17'0 0.0
2016-May-19 11:33N 37°48' W 122°17'0 0.0
2016-May-19 10:33N 37°48' W 122°17'0 0.0
2016-May-19 09:33N 37°48' W 122°17'0 0.0
2016-May-19 08:33N 37°48' W 122°17'0 0.0
2016-May-19 07:33N 37°48' W 122°17'0 0.0
2016-May-19 06:33N 37°48' W 122°17'3 2.9
2016-May-19 05:33N 37°46' W 122°20'0 0.0
2016-May-19 04:30N 37°46' W 122°20'0 0.1
2016-May-19 03:33N 37°46' W 122°20'0 0.0
2016-May-19 02:27N 37°46' W 122°20'0 0.1
2016-May-19 01:33N 37°46' W 122°20'0 0.0
2016-May-19 00:30N 37°46' W 122°20'0 0.2
2016-May-18 23:33N 37°46' W 122°20'2 2.0
2016-May-18 22:33N 37°48' W 122°22'2 1.7
2016-May-18 21:33N 37°48' W 122°24'0 0.0
2016-May-18 20:27N 37°48' W 122°24'0 0.0
2016-May-18 19:24N 37°48' W 122°24'0 0.1
2016-May-18 18:30N 37°48' W 122°24'0 0.0
2016-May-18 17:33N 37°48' W 122°24'0 0.0
2016-May-18 16:27N 37°48' W 122°24'0 0.1
2016-May-18 15:33N 37°48' W 122°24'  
Track history (hours):
 
Tides and Currents Weather Stations Pressure Air Temp Water Temp Dewpoint Dewpoint Depression Visibility Wind Speed Wind Dir Waves Ship Positions

Royal Melbourne

Owner: Harley Marine Services, Inc, Seattle, WA. More information available from US FCC via Universal Licensing System and Coast Guard Vessel Documentation Center.

Last reported at 2016-May-28 15:32 UTC. Time now 2016-May-28 19:44 UTC.
Position N 37°48' W 122°20'.

Length 30 m; draft 2 m.

Type: Tug. MMSI: 366998830.

Date/timePositionNaut miles runAvg speedWind from/ knotsBaromVisibWave heightAir tempDewpointWater temp
2016-May-28 15:32N 37°48' W 122°20'3 0.2
2016-May-27 23:25N 37°48' W 122°17'7 6.7
2016-May-27 22:27N 37°52' W 122°24'10 0.7
2016-May-27 08:14N 38°02' W 122°22'6 6.8
2016-May-27 07:25N 38°03' W 122°16'0 0.1
2016-May-27 06:13N 38°03' W 122°16'0 0.0
2016-May-27 04:31N 38°03' W 122°16'0 0.0
2016-May-26 22:33N 38°03' W 122°16'5 4.7
2016-May-26 21:30N 38°02' W 122°22'9 8.5
2016-May-26 20:29N 37°54' W 122°25'7 7.2
2016-May-26 19:34N 37°48' W 122°20'3 2.7
2016-May-26 18:33N 37°48' W 122°17'0 0.0
2016-May-26 16:33N 37°48' W 122°17'0 0.0
2016-May-26 15:33N 37°48' W 122°17'0 0.0
2016-May-26 14:33N 37°48' W 122°17'0 0.0
2016-May-26 13:33N 37°48' W 122°17'0 0.0
2016-May-26 12:33N 37°48' W 122°17'0 0.0
2016-May-26 11:33N 37°48' W 122°17'4 3.6
2016-May-26 10:34N 37°46' W 122°21'3 2.8
2016-May-26 09:23N 37°42' W 122°20'0 0.0
2016-May-26 03:33N 37°43' W 122°20'1 1.3
2016-May-26 02:33N 37°44' W 122°19'0 0.0
2016-May-26 01:32N 37°44' W 122°19'0 0.0
2016-May-25 21:30N 37°44' W 122°19'0 0.0
2016-May-25 20:31N 37°44' W 122°19'0 0.0
2016-May-25 19:33N 37°44' W 122°19'0 0.0
2016-May-25 18:33N 37°44' W 122°19'8 7.8
2016-May-25 17:33N 37°51' W 122°24'4 4.4
2016-May-25 16:33N 37°55' W 122°22'0 0.0
2016-May-25 15:33N 37°55' W 122°22'0 0.0
2016-May-25 14:33N 37°55' W 122°22'0 0.0
2016-May-25 13:33N 37°55' W 122°22'0 0.0
2016-May-25 12:33N 37°55' W 122°22'0 0.0
2016-May-25 11:33N 37°55' W 122°22'0 0.0
2016-May-25 10:33N 37°55' W 122°22'0 0.0
2016-May-25 09:33N 37°55' W 122°22'0 0.0
2016-May-25 08:33N 37°55' W 122°22'0 0.0
2016-May-25 07:33N 37°55' W 122°22'0 0.0
2016-May-25 06:33N 37°55' W 122°22'0 0.0
2016-May-25 05:33N 37°55' W 122°22'0 0.0
2016-May-25 04:33N 37°55' W 122°22'0 0.0
2016-May-25 03:33N 37°55' W 122°22'0 0.0
2016-May-25 02:30N 37°55' W 122°22'3 3.7
2016-May-25 01:33N 37°52' W 122°24'8 7.9
2016-May-25 00:32N 37°44' W 122°20'0 0.1
2016-May-24 23:29N 37°44' W 122°20'0 0.1
2016-May-24 22:29N 37°44' W 122°20'0 0.0
2016-May-24 21:29N 37°44' W 122°20'0 0.0
2016-May-24 20:29N 37°44' W 122°20'0 0.0
2016-May-24 19:32N 37°44' W 122°20'0 0.0
2016-May-24 18:32N 37°44' W 122°20'0 0.0
2016-May-24 17:32N 37°44' W 122°20'0 0.1
2016-May-24 16:21N 37°44' W 122°20'2 2.4
2016-May-24 15:33N 37°46' W 122°21'3 2.7
2016-May-24 14:33N 37°48' W 122°22'8 8.5
2016-May-24 13:33N 37°56' W 122°26'9 9.3
2016-May-24 12:33N 38°03' W 122°18'8 1.4
2016-May-24 07:11N 38°02' W 122°08'4 6.2
2016-May-24 06:32N 38°04' W 122°13'8 8.2
2016-May-24 05:33N 38°01' W 122°23'7 7.1
2016-May-24 04:33N 37°54' W 122°24'2 1.5
2016-May-24 03:33N 37°55' W 122°22'0 0.0
2016-May-24 02:33N 37°55' W 122°22'0 0.0
2016-May-24 01:33N 37°55' W 122°22'0 0.0
2016-May-24 00:33N 37°55' W 122°22'0 0.0
2016-May-23 23:12N 37°55' W 122°22'0 0.0
2016-May-23 22:33N 37°55' W 122°22'0 0.0
2016-May-23 21:27N 37°55' W 122°22'0 0.0
2016-May-23 20:33N 37°55' W 122°22'0 0.0
2016-May-23 19:12N 37°55' W 122°22'0 0.0
2016-May-23 18:30N 37°55' W 122°22'0 0.0
2016-May-23 17:33N 37°55' W 122°22'0 0.0
2016-May-23 16:33N 37°55' W 122°22'0 0.0
2016-May-23 15:33N 37°55' W 122°22'1 1.1
2016-May-23 14:33N 37°54' W 122°23'8 7.5
2016-May-23 13:32N 38°02' W 122°22'5 1.2
2016-May-23 09:05N 38°03' W 122°16'0 0.0
2016-May-23 07:23N 38°03' W 122°16'0 0.0
2016-May-23 06:11N 38°03' W 122°16'0 0.0
2016-May-22 16:22N 38°03' W 122°16'0 0.0
2016-May-22 13:10N 38°03' W 122°16'3 0.3
2016-May-22 02:23N 38°03' W 122°12'6 7.0
2016-May-22 01:32N 38°03' W 122°19'7 7.5
2016-May-22 00:32N 37°58' W 122°26'8 8.0
2016-May-21 23:33N 37°50' W 122°24'2 1.6
2016-May-21 22:33N 37°48' W 122°24'0 0.0
2016-May-21 21:33N 37°48' W 122°24'0 0.0
2016-May-21 20:33N 37°48' W 122°24'0 0.0
2016-May-21 19:29N 37°48' W 122°24'0 0.1
2016-May-21 18:32N 37°48' W 122°24'0 0.0
2016-May-21 17:32N 37°48' W 122°24'0 0.0
2016-May-21 16:32N 37°48' W 122°24'0 0.0
2016-May-21 15:32N 37°48' W 122°24'0 0.0
2016-May-21 14:32N 37°48' W 122°24'1 0.6
2016-May-21 13:34N 37°49' W 122°24'5 5.2
2016-May-21 12:34N 37°54' W 122°25'3 2.0
2016-May-21 11:17N 37°55' W 122°22'0 0.0
2016-May-21 10:29N 37°55' W 122°22'0 0.0
2016-May-21 09:29N 37°55' W 122°22'0 0.0
2016-May-21 08:23N 37°55' W 122°22'0 0.0
2016-May-21 07:29N 37°55' W 122°22'0 0.0
2016-May-21 06:29N 37°55' W 122°22'0 0.0
2016-May-21 05:26N 37°55' W 122°22'0 0.0
2016-May-21 04:29N 37°55' W 122°22'0 0.0
2016-May-21 03:23N 37°55' W 122°22'0 0.0
2016-May-21 02:29N 37°55' W 122°22'0 0.0
2016-May-21 01:29N 37°55' W 122°22'0 0.0
2016-May-21 00:23N 37°55' W 122°22'0 0.1
2016-May-20 23:26N 37°55' W 122°22'0 0.0
2016-May-20 22:32N 37°55' W 122°22'0 0.0
2016-May-20 21:25N 37°55' W 122°22'0 0.0
2016-May-20 18:16N 37°55' W 122°22'0 0.0
2016-May-20 17:25N 37°55' W 122°22'0 0.0
2016-May-20 16:31N 37°55' W 122°22'0 0.0
2016-May-20 15:31N 37°55' W 122°22'0 0.0
2016-May-20 14:31N 37°55' W 122°22'0 0.0
2016-May-20 13:31N 37°55' W 122°22'0 0.0
2016-May-20 12:31N 37°55' W 122°22'0 0.0
2016-May-20 11:31N 37°55' W 122°22'0 0.0
2016-May-20 10:31N 37°55' W 122°22'0 0.0
2016-May-20 09:28N 37°55' W 122°22'0 0.0
2016-May-20 08:22N 37°55' W 122°22'0 0.0
2016-May-20 07:31N 37°55' W 122°22'0 0.0
2016-May-20 06:31N 37°55' W 122°22'0 0.0
2016-May-20 05:25N 37°55' W 122°22'0 0.0
2016-May-20 04:31N 37°55' W 122°22'0 0.0
2016-May-20 03:28N 37°55' W 122°22'0 0.0
2016-May-20 02:31N 37°55' W 122°22'0 0.0
2016-May-20 01:22N 37°55' W 122°22'1 1.0
2016-May-20 00:33N 37°54' W 122°22'3 3.2
2016-May-19 23:33N 37°51' W 122°23'6 4.4
2016-May-19 22:11N 37°48' W 122°17'0 0.0
2016-May-19 21:32N 37°48' W 122°17'0 0.0
2016-May-19 20:29N 37°48' W 122°17'0 0.0
2016-May-19 19:32N 37°48' W 122°17'0 0.1
2016-May-19 18:33N 37°48' W 122°17'0 0.1
2016-May-19 17:34N 37°48' W 122°17'0 0.0
2016-May-19 16:30N 37°48' W 122°17'0 0.0
2016-May-19 15:24N 37°48' W 122°17'0 0.0
2016-May-19 14:30N 37°48' W 122°17'0 0.0
2016-May-19 13:33N 37°48' W 122°17'0 0.0
2016-May-19 12:33N 37°48' W 122°17'0 0.0
2016-May-19 11:33N 37°48' W 122°17'0 0.0
2016-May-19 10:33N 37°48' W 122°17'0 0.0
2016-May-19 09:33N 37°48' W 122°17'0 0.0
2016-May-19 08:33N 37°48' W 122°17'0 0.0
2016-May-19 07:33N 37°48' W 122°17'0 0.0
2016-May-19 06:33N 37°48' W 122°17'3 2.9
2016-May-19 05:33N 37°46' W 122°20'0 0.0
2016-May-19 04:30N 37°46' W 122°20'0 0.1
2016-May-19 03:33N 37°46' W 122°20'0 0.0
2016-May-19 02:27N 37°46' W 122°20'0 0.1
2016-May-19 01:33N 37°46' W 122°20'0 0.0
2016-May-19 00:30N 37°46' W 122°20'0 0.2
2016-May-18 23:33N 37°46' W 122°20'2 2.0
2016-May-18 22:33N 37°48' W 122°22'2 1.7
2016-May-18 21:33N 37°48' W 122°24'0 0.0
2016-May-18 20:27N 37°48' W 122°24'0 0.0
2016-May-18 19:24N 37°48' W 122°24'0 0.1
2016-May-18 18:30N 37°48' W 122°24'0 0.0
2016-May-18 17:33N 37°48' W 122°24'0 0.0
2016-May-18 16:27N 37°48' W 122°24'0 0.1
2016-May-18 15:33N 37°48' W 122°24'  

Dump ship's entire track history